Airfield :
LOGIN :

Register | Disclaimer

   EN    FR    IT 

 










Legend :    VFR   Marginal VFR   IFR   Intensive IFR   Very Intensive IFR
Visi :
Ceiling :
>= 8 km
>= 3000ft
5 to 8 km
1000 to 3000 ft
1500m to 5 km
500 to 1000 ft
800 to 1500m
200 to 500 ft
< 800m
< 200 ft
Symbols :   Thunderstorms  Fog  Heavy snow  Heavy precipitations  Wind > 20 kt
SIGMETs :     Misc.  Thunderstorms  Icing  Turbulence  Mountain Waves  Volcanic Ashes







- Airport Elevation : 39 ft
- IATA code : ANR


EBAW - Anvers / Antwerpen Deurne

CURRENT METAR :
  • 181750Z 12005KT 2800 BR FEW004 BKN005 M00/M01 Q1019 TEMPO 3000 BR BKN003

EXPIRED METARs :
  • 181720Z 11004KT 3500 BR FEW004 BKN005 M00/M01 Q1019 TEMPO 3000 BR BKN003
  • 181650Z 12005KT 3500 BR FEW004 BKN005 00/M00 Q1019 TEMPO 3000 BR BKN003
  • 181620Z 12005KT 4000 BR FEW004 BKN005 01/00 Q1019 TEMPO 3000 BR BKN003
  • 181550Z 13006KT 4000 BR FEW004 BKN005 01/01 Q1019 TEMPO 3000 BR BKN003
  • 181520Z 13005KT 4000 BR FEW004 BKN005 02/01 Q1019 TEMPO 3000 BR BKN003

TAF TAF EBAW
Valid from the 18 at 18:00 until the 19 at 03:00 UTC


181700Z 1818/1903 15004KT 7000 SCT005
No reported NOTAMs for that airfield.



MET'MAP, your aeronautical weather chart ! - Copyright ORBIFLY December 2007 - Disclaimer

ORBIFLY MET'MAP TEAM :

Programming & Development : Alexandra Zaïnal
Concept & Development : Baudouin d'Aumeries
Co-Development & Prog : Marc-Olivier Méhu
Technical & hardware support : Manuel Goepfert

Contact : metmap@orbifly.com




SOURCES & CREDITS :

   NOAA